Time;durP1;ratioP1;P1;durP2;ratioP2;P2;SDS_P1;SDS_P2;PMS_P1;PMS_P2;Temp;Humidity;BMP_temperature;BMP_pressure;BME280_temperature;BME280_humidity;BME280_pressure;Samples;Min_cycle;Max_cycle;Signal;HPM_P1;HPM_P2
2021/03/23 00:00:27;;;;;;;18.23;8.82;;;5.30;86.90;;;;;;2008494;29;20022;-70
2021/03/23 00:01:28;;;;;;;19.40;9.55;;;5.30;86.70;;;;;;2008578;29;20045;-71
2021/03/23 00:02:29;;;;;;;20.00;8.85;;;5.30;86.70;;;;;;2015452;29;20111;-70
2021/03/23 00:03:32;;;;;;;19.25;8.50;;;5.30;86.80;;;;;;2015724;29;20037;-71
2021/03/23 00:04:33;;;;;;;18.17;8.73;;;5.30;86.80;;;;;;2008491;29;20057;-70
2021/03/23 00:05:34;;;;;;;20.45;9.48;;;5.40;87.00;;;;;;2008503;29;20497;-71
2021/03/23 00:06:34;;;;;;;20.10;9.32;;;5.30;87.10;;;;;;2015489;28;20084;-71
2021/03/23 00:07:35;;;;;;;19.33;9.43;;;5.30;87.10;;;;;;2015673;29;20029;-70
2021/03/23 00:09:02;;;;;;;17.00;9.00;;;5.30;87.10;;;;;;2007800;29;20033;-71
2021/03/23 00:10:03;;;;;;;19.73;9.40;;;5.30;87.40;;;;;;2008648;29;20125;-71
2021/03/23 00:11:22;;;;;;;18.23;8.38;;;5.30;87.60;;;;;;2008508;29;20068;-71
2021/03/23 00:12:23;;;;;;;18.55;9.30;;;5.30;87.50;;;;;;2008695;29;20080;-70
2021/03/23 00:13:23;;;;;;;21.38;9.55;;;5.30;88.10;;;;;;2015873;29;20103;-71
2021/03/23 00:14:24;;;;;;;16.70;8.45;;;5.30;88.10;;;;;;2015762;29;20039;-70
2021/03/23 00:15:25;;;;;;;18.85;8.82;;;5.30;88.30;;;;;;2008853;29;20069;-71
2021/03/23 00:16:29;;;;;;;18.00;8.82;;;5.30;88.70;;;;;;2008812;29;20033;-71
2021/03/23 00:17:30;;;;;;;19.10;8.90;;;5.30;88.60;;;;;;2008994;29;20034;-70
2021/03/23 00:18:30;;;;;;;18.42;9.00;;;5.30;88.90;;;;;;2007953;29;20053;-71
2021/03/23 00:19:31;;;;;;;21.45;9.32;;;5.30;89.10;;;;;;2015985;29;20473;-70
2021/03/23 00:20:31;;;;;;;19.67;9.15;;;5.30;89.10;;;;;;2016023;29;20044;-71
2021/03/23 00:21:33;;;;;;;16.70;8.80;;;5.30;89.30;;;;;;2008847;29;20041;-70
2021/03/23 00:22:35;;;;;;;21.33;9.80;;;5.30;89.30;;;;;;2008490;29;20026;-70
2021/03/23 00:23:37;;;;;;;22.00;9.65;;;5.30;89.60;;;;;;2008570;29;20035;-70
2021/03/23 00:24:38;;;;;;;21.25;9.13;;;5.30;89.50;;;;;;2008357;29;20049;-70
2021/03/23 00:25:39;;;;;;;21.25;9.32;;;5.20;89.40;;;;;;2015556;29;20037;-70
2021/03/23 00:26:39;;;;;;;18.92;9.10;;;5.30;89.80;;;;;;2015458;29;20524;-70
2021/03/23 00:27:40;;;;;;;18.75;9.25;;;5.30;90.00;;;;;;2015437;29;20029;-71
2021/03/23 00:28:46;;;;;;;17.42;9.32;;;5.20;89.90;;;;;;2014675;29;20033;-70
2021/03/23 00:29:47;;;;;;;18.02;9.32;;;5.20;89.90;;;;;;2015737;29;20069;-70
2021/03/23 00:30:47;;;;;;;19.98;9.48;;;5.30;90.10;;;;;;2015557;29;20481;-70
2021/03/23 00:31:48;;;;;;;19.45;9.25;;;5.20;90.10;;;;;;2008678;29;20165;-70
2021/03/23 00:32:49;;;;;;;20.92;9.55;;;5.20;90.10;;;;;;2008525;29;20397;-71
2021/03/23 00:33:49;;;;;;;18.42;9.07;;;5.30;90.10;;;;;;2008537;29;20037;-71
2021/03/23 00:34:50;;;;;;;21.38;9.02;;;5.20;90.20;;;;;;2008489;29;20717;-71
2021/03/23 00:35:55;;;;;;;19.67;9.43;;;5.30;90.20;;;;;;2008471;29;20064;-71
2021/03/23 00:36:56;;;;;;;19.88;9.25;;;5.30;90.20;;;;;;2008417;29;20397;-70
2021/03/23 00:37:59;;;;;;;19.30;9.07;;;5.30;90.40;;;;;;2015477;29;20119;-71
2021/03/23 00:39:01;;;;;;;20.92;9.95;;;5.30;90.50;;;;;;2015342;29;20493;-70
2021/03/23 00:40:04;;;;;;;18.65;9.30;;;5.30;90.40;;;;;;2010656;29;20029;-70
2021/03/23 00:41:07;;;;;;;20.05;9.10;;;5.30;90.40;;;;;;2008973;29;20033;-70
2021/03/23 00:42:08;;;;;;;20.88;9.15;;;5.30;90.30;;;;;;2017155;29;20048;-70
2021/03/23 00:43:10;;;;;;;18.60;9.13;;;5.30;90.30;;;;;;2017658;29;20037;-70
2021/03/23 00:44:13;;;;;;;21.98;9.80;;;5.30;90.30;;;;;;2008425;29;20088;-70
2021/03/23 00:45:14;;;;;;;17.65;8.93;;;5.30;90.30;;;;;;2015261;29;20033;-74
2021/03/23 00:46:15;;;;;;;22.73;9.02;;;5.30;90.40;;;;;;2015451;29;20025;-71
2021/03/23 00:47:16;;;;;;;18.67;8.95;;;5.30;90.50;;;;;;2015431;29;20056;-70
2021/03/23 00:48:18;;;;;;;17.13;8.55;;;5.30;90.60;;;;;;2007617;29;20382;-70
2021/03/23 00:49:18;;;;;;;17.77;8.50;;;5.30;90.70;;;;;;2008260;29;20053;-71
2021/03/23 00:50:19;;;;;;;18.08;8.88;;;5.30;90.80;;;;;;2015386;29;20079;-71
2021/03/23 00:51:20;;;;;;;21.38;9.48;;;5.30;90.80;;;;;;2007706;29;20520;-71
2021/03/23 00:52:21;;;;;;;17.33;9.27;;;5.30;90.80;;;;;;2007582;29;20425;-71
2021/03/23 00:53:21;;;;;;;17.83;8.90;;;5.30;90.80;;;;;;2015315;29;20405;-71
2021/03/23 00:54:22;;;;;;;20.75;9.02;;;5.30;90.80;;;;;;2007549;29;20033;-70
2021/03/23 00:55:23;;;;;;;21.15;8.95;;;5.30;90.90;;;;;;2007722;29;20040;-71
2021/03/23 00:56:24;;;;;;;20.75;9.73;;;5.30;90.80;;;;;;2015300;29;20041;-70
2021/03/23 00:57:24;;;;;;;20.13;9.10;;;5.30;90.90;;;;;;2015359;29;20056;-70
2021/03/23 00:58:25;;;;;;;18.85;9.13;;;5.30;91.20;;;;;;2007393;29;20470;-71
2021/03/23 00:59:26;;;;;;;22.13;9.40;;;5.30;91.20;;;;;;2008361;29;20586;-71
2021/03/23 01:00:27;;;;;;;15.82;8.35;;;5.30;91.20;;;;;;2015261;29;20488;-70
2021/03/23 01:01:27;;;;;;;13.80;8.35;;;5.30;91.00;;;;;;2015272;29;20084;-71
2021/03/23 01:02:28;;;;;;;18.10;8.88;;;5.30;91.20;;;;;;2008335;29;20057;-71
2021/03/23 01:03:29;;;;;;;16.33;8.60;;;5.30;91.30;;;;;;2008327;29;20076;-70
2021/03/23 01:04:29;;;;;;;20.45;8.80;;;5.30;91.40;;;;;;2008339;29;20025;-71
2021/03/23 01:05:32;;;;;;;16.52;9.02;;;5.30;91.40;;;;;;2008196;29;20034;-70
2021/03/23 01:06:33;;;;;;;17.88;9.10;;;5.30;91.40;;;;;;2008145;29;20519;-71
2021/03/23 01:07:33;;;;;;;20.25;9.35;;;5.30;91.40;;;;;;2008257;29;20025;-71
2021/03/23 01:08:34;;;;;;;17.30;9.10;;;5.30;91.20;;;;;;2007359;29;20077;-70
2021/03/23 01:09:35;;;;;;;17.48;8.68;;;5.30;91.20;;;;;;2015176;29;20464;-71
2021/03/23 01:10:36;;;;;;;17.85;8.77;;;5.30;91.20;;;;;;2015151;29;20080;-71
2021/03/23 01:11:36;;;;;;;18.45;8.88;;;5.30;91.20;;;;;;2015300;29;20084;-70
2021/03/23 01:12:37;;;;;;;20.33;8.90;;;5.30;91.20;;;;;;2015218;29;20063;-71
2021/03/23 01:13:38;;;;;;;18.98;8.63;;;5.30;91.20;;;;;;2015367;29;20036;-70
2021/03/23 01:14:39;;;;;;;20.45;9.38;;;5.30;91.50;;;;;;2015150;29;20557;-70
2021/03/23 01:15:40;;;;;;;18.48;9.07;;;5.30;91.20;;;;;;2015326;29;20029;-71
2021/03/23 01:16:40;;;;;;;17.38;8.43;;;5.30;91.20;;;;;;2015208;29;20041;-70
2021/03/23 01:17:41;;;;;;;19.58;8.77;;;5.30;91.20;;;;;;2008199;29;20045;-70
2021/03/23 01:18:42;;;;;;;19.17;9.00;;;5.30;91.20;;;;;;2014410;29;20044;-71
2021/03/23 01:19:42;;;;;;;17.88;8.93;;;5.30;91.10;;;;;;2015280;29;20052;-71
2021/03/23 01:20:43;;;;;;;15.65;8.50;;;5.30;91.20;;;;;;2008167;29;20041;-71
2021/03/23 01:21:43;;;;;;;18.98;8.60;;;5.30;91.30;;;;;;2008274;29;20037;-70
2021/03/23 01:22:44;;;;;;;17.13;8.52;;;5.30;91.40;;;;;;2015190;29;20091;-71
2021/03/23 01:23:45;;;;;;;21.45;8.70;;;5.30;91.40;;;;;;2015281;29;20169;-71
2021/03/23 01:24:45;;;;;;;15.75;8.77;;;5.30;91.50;;;;;;2008133;29;20123;-71
2021/03/23 01:25:46;;;;;;;14.60;7.97;;;5.30;91.40;;;;;;2015259;29;20033;-70
2021/03/23 01:26:46;;;;;;;18.20;8.85;;;5.30;91.40;;;;;;2015035;29;20117;-70
2021/03/23 01:27:49;;;;;;;16.70;8.70;;;5.30;91.40;;;;;;2015229;29;20112;-70
2021/03/23 01:28:50;;;;;;;17.38;7.68;;;5.30;91.20;;;;;;2014349;29;20516;-70
2021/03/23 01:29:50;;;;;;;16.65;8.18;;;5.30;91.20;;;;;;2014549;29;20064;-72
2021/03/23 01:30:51;;;;;;;16.95;7.75;;;5.30;91.30;;;;;;2014955;29;20035;-71
2021/03/23 01:31:52;;;;;;;18.85;8.30;;;5.30;91.20;;;;;;2015172;29;20029;-70
2021/03/23 01:32:53;;;;;;;16.27;8.10;;;5.30;91.30;;;;;;2008095;29;20028;-69
2021/03/23 01:33:54;;;;;;;15.88;8.05;;;5.30;91.40;;;;;;2008137;29;20025;-70
2021/03/23 01:34:55;;;;;;;15.13;7.82;;;5.30;91.30;;;;;;2008078;29;20871;-72
2021/03/23 01:35:55;;;;;;;14.52;7.90;;;5.30;91.40;;;;;;2007446;29;20025;-71
2021/03/23 01:36:56;;;;;;;16.80;8.50;;;5.30;91.60;;;;;;2007422;29;20501;-71
2021/03/23 01:37:56;;;;;;;15.55;7.78;;;5.30;91.70;;;;;;2008089;29;20022;-71
2021/03/23 01:38:57;;;;;;;18.30;8.45;;;5.30;91.60;;;;;;2014405;29;20041;-70
2021/03/23 01:39:58;;;;;;;15.13;8.10;;;5.30;91.80;;;;;;2015180;29;20033;-70
2021/03/23 01:40:59;;;;;;;15.45;8.23;;;5.30;91.80;;;;;;2008111;29;20041;-72
2021/03/23 01:42:00;;;;;;;16.75;7.47;;;5.30;91.90;;;;;;2008101;29;20034;-72
2021/03/23 01:43:04;;;;;;;16.60;8.20;;;5.30;91.90;;;;;;2007992;29;20124;-72
2021/03/23 01:44:05;;;;;;;16.45;7.53;;;5.30;91.80;;;;;;2007997;29;20029;-71
2021/03/23 01:45:20;;;;;;;17.80;8.13;;;5.30;91.80;;;;;;2007946;29;20502;-72
2021/03/23 01:46:33;;;;;;;14.32;7.82;;;5.30;91.90;;;;;;2015154;29;20520;-72
2021/03/23 01:47:33;;;;;;;14.43;7.68;;;5.30;91.90;;;;;;2013773;29;20093;-72
2021/03/23 01:48:34;;;;;;;14.40;7.70;;;5.30;91.90;;;;;;2007168;29;20037;-71
2021/03/23 01:49:36;;;;;;;14.75;7.88;;;5.30;91.70;;;;;;2015020;29;20045;-71
2021/03/23 01:50:36;;;;;;;17.65;7.90;;;5.30;91.70;;;;;;2014727;29;20047;-72
2021/03/23 01:51:37;;;;;;;15.93;7.82;;;5.30;91.70;;;;;;2007955;29;20393;-72
2021/03/23 01:52:38;;;;;;;18.55;7.93;;;5.30;91.60;;;;;;2007839;29;20037;-71
2021/03/23 01:53:46;;;;;;;14.65;7.68;;;5.30;91.60;;;;;;2007945;29;20053;-71
2021/03/23 01:55:02;;;;;;;17.17;7.82;;;5.30;91.60;;;;;;2015050;29;20160;-71
2021/03/23 01:56:05;;;;;;;13.90;7.57;;;5.30;91.50;;;;;;2013296;29;20045;-71
2021/03/23 01:57:10;;;;;;;13.65;7.10;;;5.30;91.50;;;;;;2007843;29;20029;-72
2021/03/23 01:58:11;;;;;;;17.00;7.72;;;5.30;91.60;;;;;;2007291;29;20038;-71
2021/03/23 01:59:13;;;;;;;18.52;7.60;;;5.30;91.60;;;;;;2007866;29;20120;-72
2021/03/23 02:00:14;;;;;;;14.73;7.43;;;5.30;91.70;;;;;;2007832;29;20046;-72
2021/03/23 02:01:17;;;;;;;14.65;7.82;;;5.30;91.80;;;;;;2007893;29;20131;-71
2021/03/23 02:02:21;;;;;;;15.70;7.38;;;5.30;91.60;;;;;;2007850;29;20085;-72
2021/03/23 02:03:22;;;;;;;13.10;7.45;;;5.30;91.70;;;;;;2007864;29;20037;-72
2021/03/23 02:04:24;;;;;;;15.18;7.93;;;5.30;91.70;;;;;;2007822;29;20393;-72
2021/03/23 02:05:30;;;;;;;16.15;8.07;;;5.30;91.80;;;;;;2007793;29;20061;-71
2021/03/23 02:06:41;;;;;;;15.20;7.47;;;5.30;91.90;;;;;;2007843;29;20033;-72
2021/03/23 02:07:42;;;;;;;15.85;7.90;;;5.30;91.90;;;;;;2014857;29;20500;-72
2021/03/23 02:08:43;;;;;;;15.18;8.02;;;5.30;91.90;;;;;;2014046;29;20139;-72
2021/03/23 02:09:43;;;;;;;14.15;8.05;;;5.30;92.00;;;;;;2014973;29;20041;-71
2021/03/23 02:10:44;;;;;;;13.05;7.50;;;5.30;92.00;;;;;;2014934;29;20124;-71
2021/03/23 02:11:51;;;;;;;14.48;7.38;;;5.30;92.10;;;;;;2007858;29;20040;-72
2021/03/23 02:12:53;;;;;;;16.55;7.50;;;5.30;92.00;;;;;;2014722;29;20040;-71
2021/03/23 02:13:54;;;;;;;12.73;7.95;;;5.30;92.00;;;;;;2014804;29;20025;-71
2021/03/23 02:14:55;;;;;;;16.08;7.78;;;5.30;92.10;;;;;;2007838;29;20022;-72
2021/03/23 02:15:56;;;;;;;14.40;7.63;;;5.30;92.00;;;;;;2007882;29;20616;-71
2021/03/23 02:17:22;;;;;;;15.48;7.80;;;5.30;92.00;;;;;;2007980;29;20033;-71
2021/03/23 02:18:26;;;;;;;17.48;8.13;;;5.30;92.10;;;;;;2007226;29;20548;-72
2021/03/23 02:19:27;;;;;;;14.40;7.95;;;5.30;92.10;;;;;;2007862;29;20114;-71
2021/03/23 02:20:27;;;;;;;14.75;7.63;;;5.30;92.10;;;;;;2015021;29;20052;-71
2021/03/23 02:21:28;;;;;;;15.93;7.68;;;5.30;92.20;;;;;;2015071;29;20488;-71
2021/03/23 02:22:38;;;;;;;16.92;8.20;;;5.30;92.20;;;;;;2008005;29;20085;-72
2021/03/23 02:23:49;;;;;;;14.45;7.82;;;5.30;92.20;;;;;;2007902;29;20044;-72
2021/03/23 02:24:50;;;;;;;13.77;7.93;;;5.30;92.20;;;;;;2007733;29;20446;-71
2021/03/23 02:25:50;;;;;;;15.15;8.13;;;5.30;92.30;;;;;;2014808;29;20037;-72
2021/03/23 02:26:51;;;;;;;18.00;8.05;;;5.30;92.30;;;;;;2014793;29;20025;-72
2021/03/23 02:27:52;;;;;;;17.08;8.18;;;5.30;92.30;;;;;;2007715;29;20033;-71
2021/03/23 02:28:59;;;;;;;16.55;7.97;;;5.30;92.30;;;;;;2007010;29;20022;-71
2021/03/23 02:30:00;;;;;;;15.82;8.25;;;5.30;92.30;;;;;;2015015;29;20037;-71
2021/03/23 02:31:01;;;;;;;13.82;8.00;;;5.30;92.40;;;;;;2014736;29;20017;-72
2021/03/23 02:32:02;;;;;;;16.85;8.30;;;5.30;92.40;;;;;;2007916;29;20030;-71
2021/03/23 02:33:03;;;;;;;22.02;9.05;;;5.30;92.50;;;;;;2014754;29;20136;-71
2021/03/23 02:34:08;;;;;;;18.92;8.73;;;5.30;92.50;;;;;;2007254;29;20029;-71
2021/03/23 02:35:09;;;;;;;16.85;8.27;;;5.30;92.60;;;;;;2007253;29;20134;-72
2021/03/23 02:36:10;;;;;;;15.25;8.43;;;5.30;92.60;;;;;;2014873;28;20151;-71
2021/03/23 02:37:10;;;;;;;15.82;8.15;;;5.30;92.60;;;;;;2014857;28;20048;-71
2021/03/23 02:38:11;;;;;;;14.38;8.23;;;5.30;92.60;;;;;;2006438;29;20112;-71
2021/03/23 02:39:16;;;;;;;13.52;8.32;;;5.30;92.70;;;;;;2007418;29;20046;-71
2021/03/23 02:40:17;;;;;;;19.35;8.18;;;5.30;92.70;;;;;;2008272;29;20126;-71
2021/03/23 02:41:19;;;;;;;15.90;8.02;;;5.30;92.70;;;;;;2009255;29;20027;-71
2021/03/23 02:42:20;;;;;;;13.93;8.40;;;5.30;92.80;;;;;;2009927;29;20025;-71
2021/03/23 02:43:20;;;;;;;17.40;8.35;;;5.30;92.70;;;;;;2009924;29;20108;-72
2021/03/23 02:44:21;;;;;;;17.95;8.32;;;5.30;92.80;;;;;;2009968;29;20037;-71
2021/03/23 02:45:23;;;;;;;16.95;8.50;;;5.30;92.80;;;;;;2010799;29;20044;-71
2021/03/23 02:46:24;;;;;;;16.30;8.23;;;5.30;92.90;;;;;;2010944;29;20085;-71
2021/03/23 02:47:25;;;;;;;17.30;8.80;;;5.30;92.80;;;;;;2011153;29;20084;-71
2021/03/23 02:48:25;;;;;;;15.65;8.15;;;5.30;92.70;;;;;;2009574;29;20047;-71
2021/03/23 02:49:26;;;;;;;16.05;8.23;;;5.30;92.70;;;;;;2009147;29;20108;-71
2021/03/23 02:50:26;;;;;;;15.27;7.80;;;5.30;92.70;;;;;;2016150;29;20119;-72
2021/03/23 02:51:27;;;;;;;13.35;8.18;;;5.30;92.60;;;;;;2016222;29;20025;-71
2021/03/23 02:52:28;;;;;;;18.95;8.60;;;5.30;92.50;;;;;;2009097;29;20759;-71
2021/03/23 02:53:29;;;;;;;15.43;8.35;;;5.30;92.30;;;;;;2009076;29;20034;-70
2021/03/23 02:54:29;;;;;;;15.63;8.20;;;5.30;92.40;;;;;;2008524;29;20116;-71
2021/03/23 02:55:30;;;;;;;17.23;8.35;;;5.30;92.40;;;;;;2008450;29;20547;-71
2021/03/23 02:56:30;;;;;;;18.63;8.27;;;5.30;92.30;;;;;;2016200;28;20177;-72
2021/03/23 02:57:31;;;;;;;15.07;8.23;;;5.30;92.30;;;;;;2016160;29;20137;-71
2021/03/23 02:58:32;;;;;;;14.40;8.38;;;5.30;92.40;;;;;;2015333;29;20142;-71
2021/03/23 02:59:33;;;;;;;14.30;8.13;;;5.30;92.40;;;;;;2016243;29;20515;-71
2021/03/23 03:00:34;;;;;;;16.50;8.02;;;5.30;92.40;;;;;;2016091;29;20392;-71
2021/03/23 03:01:34;;;;;;;16.77;8.27;;;5.30;92.30;;;;;;2015995;29;20124;-72
2021/03/23 03:02:35;;;;;;;16.17;8.07;;;5.20;92.30;;;;;;2016176;29;20488;-71
2021/03/23 03:03:37;;;;;;;16.23;8.32;;;5.30;92.30;;;;;;2009080;29;20372;-71
2021/03/23 03:04:39;;;;;;;18.13;8.32;;;5.20;92.40;;;;;;2009012;29;20037;-71
2021/03/23 03:05:40;;;;;;;15.77;8.13;;;5.20;92.20;;;;;;2008983;29;20032;-71
2021/03/23 03:06:40;;;;;;;15.27;7.85;;;5.20;92.30;;;;;;2009170;29;20136;-71
2021/03/23 03:07:41;;;;;;;12.82;7.57;;;5.20;92.20;;;;;;2009108;29;20061;-71
2021/03/23 03:08:42;;;;;;;14.55;7.75;;;5.20;92.20;;;;;;2008273;29;20029;-71
2021/03/23 03:09:42;;;;;;;18.13;8.10;;;5.20;92.30;;;;;;2009130;29;20026;-71
2021/03/23 03:10:43;;;;;;;14.60;8.05;;;5.20;92.40;;;;;;2009033;29;20133;-71
2021/03/23 03:11:43;;;;;;;14.35;7.28;;;5.20;92.40;;;;;;2016101;29;20111;-71
2021/03/23 03:12:44;;;;;;;12.90;7.28;;;5.20;92.10;;;;;;2016012;29;20123;-71
2021/03/23 03:13:45;;;;;;;14.15;7.50;;;5.20;92.10;;;;;;2009069;29;20061;-72
2021/03/23 03:14:45;;;;;;;14.68;7.30;;;5.20;91.90;;;;;;2009045;29;20493;-71
2021/03/23 03:15:46;;;;;;;17.35;7.47;;;5.20;92.00;;;;;;2009192;29;20037;-70
2021/03/23 03:16:47;;;;;;;12.27;7.38;;;5.20;92.00;;;;;;2009106;29;20033;-70
2021/03/23 03:17:48;;;;;;;19.17;7.35;;;5.20;92.10;;;;;;2009053;29;20120;-71
2021/03/23 03:18:48;;;;;;;14.57;7.30;;;5.20;92.10;;;;;;2008226;29;20030;-71
2021/03/23 03:19:49;;;;;;;12.38;7.10;;;5.20;91.90;;;;;;2016152;29;20037;-70
2021/03/23 03:20:52;;;;;;;11.98;6.65;;;5.20;91.80;;;;;;2016057;29;20040;-70
2021/03/23 03:21:52;;;;;;;14.50;6.93;;;5.20;91.80;;;;;;2008997;29;20033;-71
2021/03/23 03:22:53;;;;;;;14.13;6.95;;;5.20;91.70;;;;;;2008894;29;20477;-70
2021/03/23 03:23:54;;;;;;;12.57;7.25;;;5.20;91.90;;;;;;2008873;29;20124;-70
2021/03/23 03:24:54;;;;;;;11.70;7.30;;;5.20;91.70;;;;;;2008946;29;20121;-71
2021/03/23 03:25:55;;;;;;;12.40;6.65;;;5.20;91.70;;;;;;2008905;29;20034;-70
2021/03/23 03:26:56;;;;;;;12.32;6.63;;;5.20;91.70;;;;;;2008822;29;20080;-72
2021/03/23 03:27:56;;;;;;;12.95;6.80;;;5.20;91.60;;;;;;2008944;29;20092;-71
2021/03/23 03:28:57;;;;;;;10.50;6.65;;;5.20;91.60;;;;;;2015072;29;20087;-71
2021/03/23 03:29:58;;;;;;;11.35;6.65;;;5.20;91.60;;;;;;2015946;29;20034;-70
2021/03/23 03:30:59;;;;;;;12.90;6.53;;;5.20;91.70;;;;;;2008956;29;20045;-70
2021/03/23 03:31:59;;;;;;;11.35;6.18;;;5.10;91.50;;;;;;2008823;29;20069;-70
2021/03/23 03:33:01;;;;;;;11.48;6.18;;;5.20;91.50;;;;;;2008852;29;20025;-70
2021/03/23 03:34:02;;;;;;;12.90;6.20;;;5.20;91.40;;;;;;2016022;29;20029;-71
2021/03/23 03:35:05;;;;;;;14.80;6.40;;;5.20;91.40;;;;;;2015989;29;20032;-70
2021/03/23 03:36:05;;;;;;;11.00;6.30;;;5.20;91.40;;;;;;2008871;29;20116;-70
2021/03/23 03:37:06;;;;;;;10.45;5.93;;;5.20;91.40;;;;;;2008955;29;20493;-70
2021/03/23 03:38:09;;;;;;;12.50;6.50;;;5.20;91.50;;;;;;2008947;29;20755;-70
2021/03/23 03:39:09;;;;;;;10.60;6.15;;;5.20;91.40;;;;;;2008561;29;20029;-71
2021/03/23 03:40:12;;;;;;;12.73;6.72;;;5.20;91.50;;;;;;2009073;29;20129;-70
2021/03/23 03:41:13;;;;;;;11.90;6.70;;;5.20;91.50;;;;;;2008914;29;20056;-70
2021/03/23 03:42:14;;;;;;;11.85;6.28;;;5.20;91.40;;;;;;2016137;29;20112;-70
2021/03/23 03:43:18;;;;;;;13.23;6.53;;;5.20;91.40;;;;;;2016176;29;20390;-72
2021/03/23 03:44:18;;;;;;;11.43;6.63;;;5.20;91.60;;;;;;2009131;29;20068;-71
2021/03/23 03:45:20;;;;;;;14.80;6.65;;;5.20;91.70;;;;;;2008873;29;20677;-70
2021/03/23 03:46:21;;;;;;;13.25;6.40;;;5.20;91.70;;;;;;2008837;29;20030;-70
2021/03/23 03:47:21;;;;;;;12.52;6.30;;;5.20;92.10;;;;;;2008767;29;20033;-70
2021/03/23 03:48:22;;;;;;;12.25;6.63;;;5.20;91.70;;;;;;2008263;29;20056;-71
2021/03/23 03:49:23;;;;;;;11.48;6.78;;;5.20;91.70;;;;;;2015999;29;20037;-70
2021/03/23 03:50:27;;;;;;;11.75;6.60;;;5.20;91.90;;;;;;2016811;29;20034;-70
2021/03/23 03:51:27;;;;;;;12.05;6.35;;;5.10;91.80;;;;;;2010704;29;20438;-71
2021/03/23 03:52:28;;;;;;;14.10;6.50;;;5.10;91.80;;;;;;2017663;29;20064;-70
2021/03/23 03:53:29;;;;;;;9.80;6.07;;;5.10;91.80;;;;;;2016765;29;20750;-70
2021/03/23 03:54:29;;;;;;;11.38;6.50;;;5.10;91.80;;;;;;2009350;29;20132;-70
2021/03/23 03:55:37;;;;;;;15.50;6.93;;;5.10;92.10;;;;;;2008722;29;20516;-71
2021/03/23 03:56:37;;;;;;;14.60;6.95;;;5.10;91.90;;;;;;2008636;29;20140;-70
2021/03/23 03:57:38;;;;;;;13.10;6.70;;;5.10;92.10;;;;;;2008813;29;20033;-70
2021/03/23 03:58:38;;;;;;;11.93;6.07;;;5.10;92.10;;;;;;2007933;29;20489;-71
2021/03/23 03:59:39;;;;;;;12.85;6.32;;;5.10;91.90;;;;;;2015924;29;20091;-71
2021/03/23 04:00:40;;;;;;;13.13;6.47;;;5.10;91.90;;;;;;2015793;29;20063;-71
2021/03/23 04:01:40;;;;;;;13.45;6.57;;;5.10;92.00;;;;;;2008809;29;20523;-70
2021/03/23 04:02:41;;;;;;;11.43;6.35;;;5.10;91.90;;;;;;2008711;29;20037;-70
2021/03/23 04:03:42;;;;;;;12.30;6.30;;;5.10;92.00;;;;;;2015712;29;20188;-70
2021/03/23 04:04:46;;;;;;;11.02;6.25;;;5.10;92.10;;;;;;2015741;29;20097;-70
2021/03/23 04:05:48;;;;;;;11.45;6.18;;;5.10;92.20;;;;;;2015661;29;20037;-70
2021/03/23 04:06:48;;;;;;;11.70;6.35;;;5.10;92.30;;;;;;2015500;29;20021;-71
2021/03/23 04:07:49;;;;;;;10.55;6.50;;;5.10;92.30;;;;;;2008730;29;20505;-70
2021/03/23 04:08:50;;;;;;;12.10;6.07;;;5.10;92.10;;;;;;2007909;29;20057;-70
2021/03/23 04:09:50;;;;;;;14.48;6.10;;;5.10;92.30;;;;;;2008698;29;20059;-71
2021/03/23 04:10:52;;;;;;;11.43;6.20;;;5.10;92.30;;;;;;2008690;29;20033;-71
2021/03/23 04:11:53;;;;;;;10.52;6.05;;;5.10;92.30;;;;;;2008640;29;20029;-71
2021/03/23 04:12:54;;;;;;;13.70;6.25;;;5.10;92.30;;;;;;2008644;29;20038;-71
2021/03/23 04:13:54;;;;;;;9.75;6.00;;;5.10;92.20;;;;;;2008808;29;20108;-70
2021/03/23 04:14:55;;;;;;;10.63;5.90;;;5.10;92.10;;;;;;2009172;29;20389;-71
2021/03/23 04:15:56;;;;;;;10.40;5.97;;;5.10;92.30;;;;;;2009240;29;20108;-70
2021/03/23 04:16:56;;;;;;;11.70;6.00;;;5.10;92.40;;;;;;2008347;29;20081;-71
2021/03/23 04:17:58;;;;;;;12.23;5.85;;;5.10;92.80;;;;;;2008645;29;20100;-70
2021/03/23 04:18:58;;;;;;;8.82;5.60;;;5.10;92.60;;;;;;2008022;29;20040;-70
2021/03/23 04:19:59;;;;;;;10.50;5.88;;;5.10;92.70;;;;;;2008839;29;20045;-70
2021/03/23 04:21:03;;;;;;;11.85;6.07;;;5.10;92.40;;;;;;2015694;29;20045;-71
2021/03/23 04:22:04;;;;;;;13.60;6.43;;;5.10;92.20;;;;;;2015469;29;20476;-71
2021/03/23 04:23:07;;;;;;;13.85;6.35;;;5.10;92.30;;;;;;2008842;29;20128;-71
2021/03/23 04:24:08;;;;;;;14.05;6.10;;;5.10;92.40;;;;;;2008750;29;20075;-70
2021/03/23 04:25:10;;;;;;;12.15;6.25;;;5.10;92.40;;;;;;2008412;29;20128;-70
2021/03/23 04:26:12;;;;;;;13.07;6.28;;;5.10;92.40;;;;;;2008563;29;20112;-71
2021/03/23 04:27:13;;;;;;;13.02;5.70;;;5.10;92.30;;;;;;2008442;29;20100;-70
2021/03/23 04:28:13;;;;;;;10.90;6.30;;;5.10;92.30;;;;;;2007774;29;20041;-70
2021/03/23 04:29:14;;;;;;;13.30;6.18;;;5.10;92.30;;;;;;2015518;29;20029;-70
2021/03/23 04:30:16;;;;;;;10.10;5.85;;;5.10;92.20;;;;;;2015622;29;20076;-70
2021/03/23 04:31:33;;;;;;;12.52;6.22;;;5.10;92.30;;;;;;2008422;29;20040;-70
2021/03/23 04:32:35;;;;;;;11.55;5.80;;;5.10;92.40;;;;;;2008509;29;20030;-72
2021/03/23 04:33:35;;;;;;;13.57;6.13;;;5.10;92.30;;;;;;2008428;29;20036;-70
2021/03/23 04:34:36;;;;;;;14.57;6.90;;;5.10;92.40;;;;;;2015546;29;20405;-71
2021/03/23 04:35:48;;;;;;;12.25;6.35;;;5.10;92.20;;;;;;2015503;29;20025;-70
2021/03/23 04:36:49;;;;;;;11.85;6.90;;;5.10;92.30;;;;;;2008438;29;20222;-70
2021/03/23 04:37:50;;;;;;;12.88;7.00;;;5.10;92.30;;;;;;2008467;29;20037;-70
2021/03/23 04:38:51;;;;;;;16.40;6.63;;;5.10;92.40;;;;;;2007715;29;20034;-70
2021/03/23 04:39:51;;;;;;;12.95;6.95;;;5.10;92.50;;;;;;2007860;29;20075;-69
2021/03/23 04:40:52;;;;;;;12.45;6.80;;;5.10;92.50;;;;;;2007891;29;20100;-69
2021/03/23 04:41:53;;;;;;;14.38;7.43;;;5.10;92.50;;;;;;2015597;29;20087;-72
2021/03/23 04:42:53;;;;;;;12.75;7.25;;;5.10;92.90;;;;;;2015611;29;20579;-69
2021/03/23 04:43:54;;;;;;;12.15;7.05;;;5.10;92.50;;;;;;2007839;29;20052;-72
2021/03/23 04:44:55;;;;;;;12.60;7.53;;;5.10;92.60;;;;;;2007978;29;20481;-71
2021/03/23 04:45:57;;;;;;;17.65;9.02;;;5.10;92.80;;;;;;2008502;29;20033;-71
2021/03/23 04:46:58;;;;;;;14.05;8.50;;;5.10;92.70;;;;;;2008419;29;20033;-72
2021/03/23 04:47:59;;;;;;;15.32;8.88;;;5.10;92.90;;;;;;2008514;29;20093;-71
2021/03/23 04:49:00;;;;;;;17.42;8.60;;;5.10;93.10;;;;;;2007563;29;20096;-72
2021/03/23 04:50:00;;;;;;;21.92;10.23;;;5.10;93.30;;;;;;2008330;29;20127;-72
2021/03/23 04:51:04;;;;;;;15.00;8.50;;;5.10;93.30;;;;;;2015407;29;20033;-72
2021/03/23 04:52:05;;;;;;;17.63;8.85;;;5.10;93.30;;;;;;2015306;29;20037;-72
2021/03/23 04:53:05;;;;;;;16.35;8.45;;;5.00;93.40;;;;;;2008997;29;20045;-72
2021/03/23 04:54:08;;;;;;;13.93;8.23;;;5.00;93.50;;;;;;2009926;29;20406;-70
2021/03/23 04:55:09;;;;;;;15.18;8.18;;;5.00;93.70;;;;;;2009978;29;20065;-72
2021/03/23 04:56:23;;;;;;;17.08;8.13;;;5.00;93.70;;;;;;2010592;29;20053;-71
2021/03/23 04:57:23;;;;;;;14.15;7.72;;;5.00;94.00;;;;;;2009952;29;20038;-72
2021/03/23 04:58:25;;;;;;;11.63;7.40;;;5.00;94.10;;;;;;2009348;29;20044;-69
2021/03/23 04:59:26;;;;;;;12.43;7.45;;;5.00;94.10;;;;;;2010146;29;20045;-71
2021/03/23 05:00:26;;;;;;;13.43;7.85;;;5.00;94.30;;;;;;2010430;29;20030;-71
2021/03/23 05:01:27;;;;;;;16.75;8.30;;;5.00;94.40;;;;;;2015524;29;20444;-71
2021/03/23 05:02:28;;;;;;;13.60;7.90;;;5.00;94.70;;;;;;2015510;29;20037;-69
2021/03/23 05:03:32;;;;;;;16.55;8.60;;;4.90;94.60;;;;;;2015560;29;20535;-71
2021/03/23 05:04:32;;;;;;;14.90;8.15;;;4.90;94.80;;;;;;2014731;29;20025;-69
2021/03/23 05:05:33;;;;;;;14.35;8.05;;;4.90;95.00;;;;;;2015109;29;20033;-72
2021/03/23 05:06:33;;;;;;;14.68;8.40;;;4.90;95.20;;;;;;2015532;29;20365;-70
2021/03/23 05:07:35;;;;;;;14.60;8.68;;;4.90;95.20;;;;;;2015477;29;20135;-69
2021/03/23 05:08:43;;;;;;;15.85;8.20;;;4.80;95.20;;;;;;2007009;29;20037;-69
2021/03/23 05:09:44;;;;;;;11.32;7.43;;;4.80;95.40;;;;;;2007830;29;20030;-72
2021/03/23 05:10:44;;;;;;;17.02;8.02;;;4.80;95.40;;;;;;2008622;29;20037;-70
2021/03/23 05:11:45;;;;;;;13.80;8.00;;;4.80;95.60;;;;;;2008513;29;20076;-71
2021/03/23 05:12:45;;;;;;;12.90;7.82;;;4.80;95.70;;;;;;2008553;29;20032;-71
2021/03/23 05:13:47;;;;;;;15.27;7.90;;;4.70;95.90;;;;;;2008657;29;20026;-71
2021/03/23 05:14:48;;;;;;;13.70;8.13;;;4.80;95.90;;;;;;2009007;29;20072;-72
2021/03/23 05:15:48;;;;;;;13.57;7.88;;;4.70;96.00;;;;;;2016051;29;20037;-71
2021/03/23 05:16:49;;;;;;;15.60;8.35;;;4.80;96.10;;;;;;2015702;29;20102;-71
2021/03/23 05:17:49;;;;;;;13.85;7.95;;;4.70;96.30;;;;;;2015556;29;20033;-72
2021/03/23 05:18:50;;;;;;;16.52;8.55;;;4.70;96.40;;;;;;2014653;29;20033;-70
2021/03/23 05:19:51;;;;;;;14.55;8.43;;;4.70;96.60;;;;;;2015401;29;20149;-71
2021/03/23 05:20:52;;;;;;;17.52;8.98;;;4.70;96.80;;;;;;2008323;29;20482;-72
2021/03/23 05:21:53;;;;;;;19.52;8.88;;;4.70;97.00;;;;;;2008320;29;20072;-71